Time;durP1;ratioP1;P1;durP2;ratioP2;P2;SDS_P1;SDS_P2;PMS_P1;PMS_P2;Temp;Humidity;BMP_temperature;BMP_pressure;BME280_temperature;BME280_humidity;BME280_pressure;Samples;Min_cycle;Max_cycle;Signal;HPM_P1;HPM_P2
2021/08/05 00:02:12;;;;;;;7.03;5.50;;;;;;;15.22;79.63;100457.15;1756593;81;27614;-77
2021/08/05 00:04:39;;;;;;;10.45;6.00;;;;;;;15.16;79.58;100458.00;1684924;82;26587;-77
2021/08/05 00:07:07;;;;;;;56.53;7.60;;;;;;;15.13;79.72;100457.11;1718490;81;26526;-77
2021/08/05 00:09:35;;;;;;;43.48;7.87;;;;;;;15.10;80.11;100450.80;1759906;81;25901;-77
2021/08/05 00:12:02;;;;;;;30.92;7.60;;;;;;;15.02;80.36;100456.47;1757048;81;25771;-77
2021/08/05 00:14:29;;;;;;;68.50;8.00;;;;;;;15.02;80.57;100458.33;1703402;81;28112;-77
2021/08/05 00:16:56;;;;;;;53.15;6.78;;;;;;;15.01;80.61;100459.39;1706090;81;25845;-77
2021/08/05 00:19:24;;;;;;;30.70;6.47;;;;;;;14.97;80.50;100454.94;1738061;81;25296;-77
2021/08/05 00:21:51;;;;;;;37.85;6.72;;;;;;;14.94;80.56;100453.21;1717389;81;25946;-77
2021/08/05 00:24:18;;;;;;;30.97;6.80;;;;;;;14.94;80.67;100454.05;1677300;81;25838;-77
2021/08/05 00:26:45;;;;;;;39.18;7.20;;;;;;;14.93;80.64;100455.07;1694978;81;27284;-77
2021/08/05 00:29:12;;;;;;;33.25;7.83;;;;;;;14.91;80.92;100454.47;1761088;81;25803;-77
2021/08/05 00:31:39;;;;;;;28.00;7.20;;;;;;;14.88;81.02;100449.52;1738604;82;26744;-77
2021/08/05 00:34:06;;;;;;;21.52;6.92;;;;;;;14.85;81.01;100446.42;1670452;80;25918;-77
2021/08/05 00:36:33;;;;;;;16.10;6.62;;;;;;;14.83;81.01;100444.47;1695106;81;26496;-77
2021/08/05 00:39:00;;;;;;;23.92;7.60;;;;;;;14.81;81.00;100445.20;1758587;81;28056;-77
2021/08/05 00:41:28;;;;;;;23.45;7.70;;;;;;;14.78;81.00;100446.46;1760512;81;25905;-77
2021/08/05 00:43:55;;;;;;;51.33;7.90;;;;;;;14.77;81.20;100438.59;1714262;80;25997;-77
2021/08/05 00:46:23;;;;;;;54.03;8.50;;;;;;;14.75;81.21;100442.03;1720336;81;25735;-77
2021/08/05 00:48:50;;;;;;;42.90;7.55;;;;;;;14.72;81.31;100439.77;1736965;82;25352;-77
2021/08/05 00:51:17;;;;;;;37.58;7.10;;;;;;;14.71;81.24;100440.82;1759825;81;27532;-77
2021/08/05 00:53:45;;;;;;;12.53;6.55;;;;;;;14.68;81.17;100442.91;1695302;81;25822;-77
2021/08/05 00:56:12;;;;;;;143.55;9.65;;;;;;;14.67;81.45;100439.89;1699612;81;26652;-77
2021/08/05 00:58:39;;;;;;;125.92;9.80;;;;;;;14.67;81.63;100439.89;1750674;81;26531;-77
2021/08/05 01:01:17;;;;;;;97.95;10.48;;;;;;;14.66;81.79;100435.56;1752755;81;26454;-77
2021/08/05 01:03:49;;;;;;;103.12;8.93;;;;;;;14.66;81.85;100432.87;1717419;81;27473;-77
2021/08/05 01:06:48;;;;;;;140.82;9.28;;;;;;;14.66;81.91;100428.83;1717274;81;26592;-77
2021/08/05 01:09:48;;;;;;;118.08;8.83;;;;;;;14.65;81.90;100430.37;1753249;81;25326;-77
2021/08/05 01:12:36;;;;;;;153.70;11.18;;;;;;;14.63;82.05;100431.11;1713400;81;26390;-78
2021/08/05 01:15:13;;;;;;;123.62;9.08;;;;;;;14.59;82.20;100423.98;1756493;81;25785;-77
2021/08/05 01:17:50;;;;;;;37.55;7.25;;;;;;;14.56;81.96;100426.30;1749634;81;28796;-77
2021/08/05 01:20:20;;;;;;;31.37;7.10;;;;;;;14.47;81.67;100416.30;1756278;81;25864;-77
2021/08/05 01:23:27;;;;;;;22.20;8.25;;;;;;;14.43;81.75;100418.29;1738033;82;25826;-77
2021/08/05 01:26:29;;;;;;;18.10;8.10;;;;;;;14.36;81.75;100412.93;1749288;81;26252;-78
2021/08/05 01:28:57;;;;;;;11.15;7.08;;;;;;;14.32;81.86;100407.67;1757899;81;26034;-77
2021/08/05 01:31:25;;;;;;;48.73;8.13;;;;;;;14.30;81.93;100408.92;1708868;82;27667;-77
2021/08/05 01:33:54;;;;;;;51.90;8.00;;;;;;;14.28;81.83;100408.28;1715018;81;25860;-77
2021/08/05 01:36:25;;;;;;;12.65;6.90;;;;;;;14.22;81.79;100406.45;1719567;81;25640;-76
2021/08/05 01:38:53;;;;;;;9.38;6.28;;;;;;;14.20;81.86;100409.88;1721222;81;25813;-77
2021/08/05 01:41:22;;;;;;;17.30;6.22;;;;;;;14.21;81.82;100403.44;1686979;82;25902;-77
2021/08/05 01:43:50;;;;;;;28.60;6.22;;;;;;;14.20;81.75;100409.34;1751607;80;27542;-77
2021/08/05 01:46:19;;;;;;;22.05;7.10;;;;;;;14.21;81.74;100408.83;1696792;81;25980;-77
2021/08/05 01:48:49;;;;;;;39.35;5.97;;;;;;;14.21;81.59;100404.78;1696349;81;25347;-77
2021/08/05 01:51:22;;;;;;;82.00;6.50;;;;;;;14.21;81.50;100408.83;1711488;80;26431;-77
2021/08/05 01:53:51;;;;;;;45.20;5.12;;;;;;;14.12;81.33;100393.43;1759064;80;25744;-77
2021/08/05 01:56:28;;;;;;;22.73;4.92;;;;;;;14.08;80.99;100406.19;1743882;80;28097;-76
2021/08/05 01:58:59;;;;;;;12.75;5.10;;;;;;;14.04;81.16;100413.05;1702973;81;25957;-77
2021/08/05 02:01:22;;;;;;;11.38;4.60;;;;;;;14.01;81.25;100404.07;1707195;81;25910;-77
2021/08/05 02:04:19;;;;;;;34.45;4.78;;;;;;;14.00;81.48;100405.09;1767113;79;25866;-77
2021/08/05 02:07:09;;;;;;;21.00;4.60;;;;;;;13.98;81.49;100402.63;1698301;82;25922;-77
2021/08/05 02:09:42;;;;;;;29.45;5.10;;;;;;;13.90;81.47;100413.61;1714436;81;27489;-77
2021/08/05 02:12:09;;;;;;;34.55;5.83;;;;;;;13.87;81.73;100414.89;1687835;81;26735;-77
2021/08/05 02:14:36;;;;;;;8.83;5.40;;;;;;;13.86;82.02;100400.27;1718094;81;25953;-77
2021/08/05 02:17:07;;;;;;;48.60;6.65;;;;;;;13.84;82.14;100409.91;1714353;82;25780;-77
2021/08/05 02:19:35;;;;;;;53.68;7.58;;;;;;;13.83;82.18;100404.75;1717781;81;25757;-77
2021/08/05 02:22:03;;;;;;;70.72;7.12;;;;;;;13.82;82.62;100405.26;1689338;82;28162;-77
2021/08/05 02:24:33;;;;;;;36.08;6.75;;;;;;;13.84;82.59;100404.53;1753746;81;26533;-77
2021/08/05 02:27:00;;;;;;;42.98;5.53;;;;;;;13.85;82.61;100408.05;1716451;81;25331;-77
2021/08/05 02:29:28;;;;;;;34.58;5.70;;;;;;;13.86;82.67;100412.38;1689702;82;25936;-77
2021/08/05 02:31:56;;;;;;;47.73;6.47;;;;;;;13.86;82.58;100413.22;1717775;81;25992;-77
2021/08/05 02:34:25;;;;;;;64.22;6.10;;;;;;;13.87;82.80;100402.77;1709132;81;28332;-77
2021/08/05 02:36:53;;;;;;;47.40;6.20;;;;;;;13.86;82.86;100409.17;1722225;81;25996;-77
2021/08/05 02:39:21;;;;;;;116.50;7.87;;;;;;;13.87;83.01;100414.89;1690990;82;26520;-77
2021/08/05 02:41:50;;;;;;;105.22;7.20;;;;;;;13.85;83.30;100414.78;1715639;81;26550;-77
2021/08/05 02:44:20;;;;;;;89.83;6.30;;;;;;;13.84;83.32;100418.50;1747030;81;26425;-77
2021/08/05 02:46:48;;;;;;;82.40;6.78;;;;;;;13.80;83.27;100412.73;1721506;81;28422;-77
2021/08/05 02:49:17;;;;;;;36.38;5.50;;;;;;;13.76;83.35;100405.28;1695009;81;25883;-77
2021/08/05 02:51:46;;;;;;;49.60;5.05;;;;;;;13.73;83.40;100406.52;1715816;81;25906;-77
2021/08/05 02:54:16;;;;;;;22.50;4.97;;;;;;;13.74;83.69;100401.47;1747287;80;25848;-78
2021/08/05 02:56:43;;;;;;;11.90;4.50;;;;;;;13.75;83.67;100413.87;1718557;81;26100;-77
2021/08/05 02:59:12;;;;;;;16.25;4.80;;;;;;;13.77;83.80;100405.60;1722022;81;28261;-77
2021/08/05 03:01:41;;;;;;;20.17;4.92;;;;;;;13.78;83.96;100404.03;1721248;81;26533;-76
2021/08/05 03:04:10;;;;;;;24.63;4.67;;;;;;;13.78;84.08;100405.89;1735738;81;25301;-76
2021/08/05 03:06:39;;;;;;;34.88;4.10;;;;;;;13.77;84.14;100402.37;1756371;80;25842;-77
2021/08/05 03:09:07;;;;;;;10.00;3.95;;;;;;;13.77;84.14;100399.67;1691749;81;25761;-77
2021/08/05 03:11:34;;;;;;;52.45;5.40;;;;;;;13.76;84.18;100395.86;1714266;80;27589;-77
2021/08/05 03:14:01;;;;;;;74.42;5.72;;;;;;;13.80;84.40;100399.77;1730573;80;25879;-79
2021/08/05 03:16:28;;;;;;;53.25;5.25;;;;;;;13.80;84.43;100399.77;1697213;81;25783;-77
2021/08/05 03:18:55;;;;;;;39.75;4.35;;;;;;;13.77;84.42;100401.02;1707071;80;26276;-77
2021/08/05 03:21:22;;;;;;;55.30;4.55;;;;;;;13.76;84.64;100394.00;1683233;82;25747;-77
2021/08/05 03:23:49;;;;;;;28.55;5.42;;;;;;;13.75;84.65;100398.26;1761318;81;28339;-77
2021/08/05 03:26:16;;;;;;;33.28;4.70;;;;;;;13.71;84.77;100392.45;1717300;82;25960;-77
2021/08/05 03:28:43;;;;;;;14.80;4.47;;;;;;;13.69;84.77;100388.31;1672727;80;25852;-77
2021/08/05 03:31:10;;;;;;;13.45;4.45;;;;;;;13.68;85.03;100387.52;1695023;81;25881;-77
2021/08/05 03:33:37;;;;;;;10.65;4.95;;;;;;;13.70;85.10;100385.94;1770387;79;25781;-77
2021/08/05 03:36:04;;;;;;;11.80;4.58;;;;;;;13.68;85.06;100384.81;1723560;81;27553;-77
2021/08/05 03:38:31;;;;;;;24.45;5.42;;;;;;;13.70;85.20;100385.43;1672453;81;26320;-77
2021/08/05 03:41:01;;;;;;;25.10;5.00;;;;;;;13.74;85.31;100383.97;1696440;81;25791;-77
2021/08/05 03:43:28;;;;;;;41.28;6.08;;;;;;;13.77;85.32;100382.72;1749738;81;26443;-77
2021/08/05 03:45:55;;;;;;;20.80;6.15;;;;;;;13.81;85.39;100378.56;1720881;81;25961;-77
2021/08/05 03:48:22;;;;;;;27.48;5.37;;;;;;;13.82;85.34;100381.03;1695745;81;27549;-77
2021/08/05 03:50:50;;;;;;;20.40;6.12;;;;;;;13.84;85.37;100378.95;1718672;80;26541;-77
2021/08/05 03:53:17;;;;;;;23.35;5.67;;;;;;;13.88;85.41;100380.69;1712582;81;25859;-77
2021/08/05 03:55:44;;;;;;;12.33;5.60;;;;;;;13.91;85.47;100382.45;1739722;80;25859;-77
2021/08/05 03:58:11;;;;;;;18.20;6.30;;;;;;;13.97;85.58;100378.58;1675775;81;25884;-77
2021/08/05 04:00:39;;;;;;;25.92;6.10;;;;;;;14.01;85.76;100381.98;1685060;81;27651;-77
2021/08/05 04:03:06;;;;;;;25.60;7.00;;;;;;;14.04;85.88;100387.47;1710351;81;26443;-77
2021/08/05 04:05:33;;;;;;;20.62;7.03;;;;;;;14.06;86.03;100388.91;1719222;82;25942;-77
2021/08/05 04:08:00;;;;;;;15.45;6.12;;;;;;;14.07;86.00;100388.39;1686614;81;26567;-76
2021/08/05 04:10:27;;;;;;;15.03;6.90;;;;;;;14.03;86.11;100385.83;1736248;80;26484;-77
2021/08/05 04:12:54;;;;;;;8.75;6.15;;;;;;;13.99;86.33;100385.41;1753649;80;27452;-77
2021/08/05 04:15:21;;;;;;;10.38;6.80;;;;;;;13.96;86.58;100384.51;1726404;81;26552;-77
2021/08/05 04:17:49;;;;;;;11.75;6.72;;;;;;;14.00;86.90;100384.89;1680261;82;25794;-77
2021/08/05 04:20:18;;;;;;;9.53;6.70;;;;;;;13.99;87.05;100382.72;1702969;81;26295;-77
2021/08/05 04:22:45;;;;;;;9.53;7.33;;;;;;;14.01;87.24;100383.88;1758184;81;25259;-77
2021/08/05 04:25:12;;;;;;;12.85;7.12;;;;;;;14.06;87.45;100383.52;1713513;82;27450;-77
2021/08/05 04:27:40;;;;;;;11.38;6.95;;;;;;;14.12;87.50;100385.86;1672130;80;25813;-77
2021/08/05 04:30:11;;;;;;;11.10;6.55;;;;;;;14.11;87.58;100383.72;1710513;81;25796;-77
2021/08/05 04:32:39;;;;;;;13.88;7.25;;;;;;;14.15;87.71;100387.62;1760101;81;25906;-77
2021/08/05 04:35:09;;;;;;;16.32;7.55;;;;;;;14.17;87.68;100384.71;1771817;80;25871;-76
2021/08/05 04:37:36;;;;;;;11.05;6.97;;;;;;;14.19;87.71;100379.94;1728161;81;27500;-77
2021/08/05 04:40:04;;;;;;;11.55;7.33;;;;;;;14.20;87.88;100378.91;1692347;82;26024;-77
2021/08/05 04:42:31;;;;;;;11.20;7.85;;;;;;;14.24;88.06;100370.15;1760076;81;25271;-77
2021/08/05 04:44:58;;;;;;;12.03;7.20;;;;;;;14.29;88.17;100373.58;1720607;81;25847;-77
2021/08/05 04:47:25;;;;;;;11.90;7.55;;;;;;;14.32;88.21;100375.34;1679357;81;25820;-77
2021/08/05 04:49:52;;;;;;;12.03;7.67;;;;;;;14.40;88.42;100374.23;1697380;81;27635;-76
2021/08/05 04:52:19;;;;;;;11.60;7.35;;;;;;;14.44;88.39;100376.80;1762708;80;25866;-77
2021/08/05 04:54:46;;;;;;;13.83;7.83;;;;;;;14.45;88.36;100376.61;1729053;81;25873;-77
2021/08/05 04:57:13;;;;;;;11.55;7.55;;;;;;;14.47;88.46;100372.34;1689615;82;26539;-77
2021/08/05 04:59:40;;;;;;;12.90;8.35;;;;;;;14.52;88.58;100379.27;1692535;81;25632;-77
2021/08/05 05:02:07;;;;;;;10.30;7.92;;;;;;;14.54;88.74;100379.33;1717351;81;27513;-77
2021/08/05 05:04:34;;;;;;;13.28;7.95;;;;;;;14.59;88.82;100389.45;1714223;82;26556;-77
2021/08/05 05:07:01;;;;;;;13.83;8.35;;;;;;;14.63;89.09;100378.02;1753615;80;25804;-77
2021/08/05 05:09:28;;;;;;;19.48;8.98;;;;;;;14.64;89.11;100377.51;1688468;82;26601;-77
2021/08/05 05:11:55;;;;;;;23.40;8.38;;;;;;;14.68;89.61;100385.46;1735317;81;25736;-77
2021/08/05 05:14:22;;;;;;;22.58;9.13;;;;;;;14.73;89.57;100380.77;1759283;81;27477;-77
2021/08/05 05:16:49;;;;;;;17.48;9.05;;;;;;;14.75;89.54;100377.33;1737839;82;25843;-77
2021/08/05 05:19:18;;;;;;;32.42;10.15;;;;;;;14.77;89.77;100376.06;1669868;80;25855;-78
2021/08/05 05:21:45;;;;;;;46.45;10.05;;;;;;;14.81;89.98;100374.58;1730837;81;26746;-77
2021/08/05 05:24:12;;;;;;;22.98;10.08;;;;;;;14.85;90.07;100368.21;1762302;81;25929;-77
2021/08/05 05:26:39;;;;;;;36.58;10.43;;;;;;;14.89;90.15;100374.81;1754470;80;28724;-78
2021/08/05 05:29:06;;;;;;;22.07;10.38;;;;;;;14.91;90.26;100372.20;1684863;81;26652;-77
2021/08/05 05:31:33;;;;;;;27.77;11.38;;;;;;;14.96;90.16;100375.08;1706654;80;25316;-77
2021/08/05 05:34:00;;;;;;;29.65;11.70;;;;;;;14.99;90.26;100374.62;1756562;81;26439;-77
2021/08/05 05:36:27;;;;;;;20.08;11.12;;;;;;;15.01;90.52;100370.38;1746626;81;25777;-77
2021/08/05 05:38:54;;;;;;;17.80;10.53;;;;;;;15.04;90.61;100377.49;1678660;81;27451;-77
2021/08/05 05:41:21;;;;;;;19.17;11.80;;;;;;;15.07;90.69;100380.28;1671428;81;25396;-77
2021/08/05 05:43:48;;;;;;;20.17;13.05;;;;;;;15.12;90.81;100377.75;1753208;80;25908;-77
2021/08/05 05:46:15;;;;;;;19.85;11.80;;;;;;;15.16;91.14;100374.36;1755933;81;25803;-77
2021/08/05 05:48:42;;;;;;;18.52;11.83;;;;;;;15.20;91.50;100375.59;1677034;81;25871;-77
2021/08/05 05:51:10;;;;;;;13.95;11.30;;;;;;;15.25;91.53;100369.51;1706714;81;27730;-77
2021/08/05 05:53:37;;;;;;;16.12;11.68;;;;;;;15.28;91.57;100367.72;1749323;80;25866;-77
2021/08/05 05:56:04;;;;;;;17.50;11.90;;;;;;;15.32;91.57;100367.58;1760900;81;26098;-77
2021/08/05 05:58:33;;;;;;;13.53;10.53;;;;;;;15.40;92.01;100372.67;1679910;81;25940;-77
2021/08/05 06:01:00;;;;;;;15.40;11.48;;;;;;;15.44;92.11;100365.81;1693398;81;25929;-77
2021/08/05 06:03:27;;;;;;;14.65;11.80;;;;;;;15.49;92.13;100365.14;1756223;80;27455;-77
2021/08/05 06:05:54;;;;;;;14.45;10.60;;;;;;;15.56;92.20;100364.55;1755813;81;26457;-77
2021/08/05 06:08:21;;;;;;;14.23;11.28;;;;;;;15.64;92.41;100364.25;1675922;82;25990;-77
2021/08/05 06:10:48;;;;;;;16.80;10.60;;;;;;;15.70;92.37;100357.42;1665723;81;25830;-77
2021/08/05 06:13:15;;;;;;;14.23;11.83;;;;;;;15.71;92.02;100355.04;1761433;81;25846;-77
2021/08/05 06:15:42;;;;;;;12.98;11.08;;;;;;;15.77;92.14;100356.83;1721837;81;27589;-77
2021/08/05 06:18:09;;;;;;;13.10;10.50;;;;;;;15.85;92.36;100352.98;1691933;82;25832;-77
2021/08/05 06:20:36;;;;;;;14.85;11.30;;;;;;;15.91;92.21;100353.45;1684580;82;25837;-77
2021/08/05 06:23:07;;;;;;;12.15;10.32;;;;;;;15.94;92.18;100352.98;1763024;81;25787;-77
2021/08/05 06:25:32;;;;;;;12.82;9.13;;;;;;;15.96;92.08;100349.52;1756568;80;25858;-77
2021/08/05 06:27:59;;;;;;;11.53;9.90;;;;;;;15.96;91.80;100350.88;1677369;82;27566;-77
2021/08/05 06:30:26;;;;;;;10.93;9.80;;;;;;;16.00;92.12;100352.06;1702804;80;25997;-77
2021/08/05 06:32:53;;;;;;;12.25;11.10;;;;;;;16.03;92.05;100358.38;1731641;82;25921;-77
2021/08/05 06:35:20;;;;;;;14.58;11.00;;;;;;;16.03;91.83;100353.80;1716929;81;26559;-77
2021/08/05 06:37:48;;;;;;;12.60;10.88;;;;;;;16.06;92.29;100344.39;1679063;81;26630;-77
2021/08/05 06:40:15;;;;;;;12.35;11.05;;;;;;;16.12;92.80;100342.16;1678880;81;27367;-77
2021/08/05 06:42:42;;;;;;;12.28;11.08;;;;;;;16.13;92.44;100343.27;1750260;81;26097;-77
2021/08/05 06:45:12;;;;;;;13.03;11.35;;;;;;;16.11;92.15;100337.27;1747254;81;25831;-77
2021/08/05 06:47:43;;;;;;;13.25;11.88;;;;;;;16.11;92.18;100345.89;1682828;81;25907;-77
2021/08/05 06:50:11;;;;;;;14.60;12.13;;;;;;;16.12;92.41;100344.86;1667414;81;25786;-77
2021/08/05 06:52:38;;;;;;;13.78;11.85;;;;;;;16.12;92.30;100338.90;1758057;80;27528;-77
2021/08/05 06:55:06;;;;;;;12.98;11.30;;;;;;;16.16;92.12;100339.28;1756767;81;25789;-76
2021/08/05 06:57:33;;;;;;;17.52;13.20;;;;;;;16.21;92.53;100339.41;1705296;81;25780;-77
2021/08/05 07:00:00;;;;;;;17.90;13.90;;;;;;;16.24;92.33;100332.20;1690674;81;25860;-77
2021/08/05 07:02:28;;;;;;;14.45;12.47;;;;;;;16.26;91.98;100338.20;1753328;80;25740;-77
2021/08/05 07:04:56;;;;;;;14.78;13.13;;;;;;;16.30;92.37;100333.14;1752130;81;27458;-77
2021/08/05 07:07:23;;;;;;;15.53;13.48;;;;;;;16.35;92.17;100337.34;1685395;79;25836;-77
2021/08/05 07:09:50;;;;;;;15.88;14.07;;;;;;;16.35;91.95;100335.47;1705187;82;25985;-78
2021/08/05 07:12:17;;;;;;;15.70;13.55;;;;;;;16.40;92.27;100338.84;1750063;81;25877;-77
2021/08/05 07:14:44;;;;;;;16.48;14.55;;;;;;;16.43;91.99;100343.25;1750786;81;25850;-78
2021/08/05 07:17:12;;;;;;;16.62;14.73;;;;;;;16.48;92.36;100347.45;1690315;81;27556;-77
2021/08/05 07:19:40;;;;;;;17.52;14.40;;;;;;;16.54;92.17;100331.67;1692915;81;25913;-77
2021/08/05 07:22:07;;;;;;;16.65;14.00;;;;;;;16.59;91.83;100329.11;1749344;81;25840;-78
2021/08/05 07:24:34;;;;;;;14.78;13.20;;;;;;;16.62;91.87;100328.63;1752188;80;25880;-77
2021/08/05 07:27:01;;;;;;;16.75;14.93;;;;;;;16.67;91.64;100321.17;1664783;81;25611;-77
2021/08/05 07:29:29;;;;;;;14.58;12.95;;;;;;;16.76;92.03;100322.48;1678699;81;27367;-78
2021/08/05 07:32:04;;;;;;;13.13;11.83;;;;;;;16.85;92.46;100317.84;1755050;80;25731;-77
2021/08/05 07:34:27;;;;;;;15.95;12.58;;;;;;;16.92;91.69;100318.55;1732373;81;25924;-77
2021/08/05 07:36:54;;;;;;;14.35;11.30;;;;;;;17.00;91.64;100319.27;1726563;82;25916;-77
2021/08/05 07:39:21;;;;;;;13.95;11.95;;;;;;;17.06;91.92;100311.56;1706923;81;25725;-78
2021/08/05 07:41:48;;;;;;;12.70;11.40;;;;;;;17.16;91.82;100309.91;1763295;81;27513;-77
2021/08/05 07:44:15;;;;;;;13.90;11.40;;;;;;;17.24;91.50;100305.48;1729891;82;25734;-77
2021/08/05 07:46:47;;;;;;;11.60;10.38;;;;;;;17.31;90.98;100306.70;1661610;83;25791;-77
2021/08/05 07:49:15;;;;;;;10.40;9.25;;;;;;;17.31;90.36;100304.83;1693876;81;25772;-77
2021/08/05 07:51:43;;;;;;;11.50;10.18;;;;;;;17.33;90.07;100307.30;1738966;82;44004;-78
2021/08/05 07:54:11;;;;;;;9.88;8.85;;;;;;;17.39;90.26;100300.39;1718449;81;27534;-78
2021/08/05 07:56:38;;;;;;;9.93;8.93;;;;;;;17.47;90.63;100293.80;1694728;81;25827;-78
2021/08/05 07:59:05;;;;;;;9.20;8.23;;;;;;;17.55;90.22;100292.11;1720679;81;25290;-77
2021/08/05 08:01:32;;;;;;;9.43;8.50;;;;;;;17.62;89.90;100289.53;1701426;81;26542;-77
2021/08/05 08:03:59;;;;;;;8.85;7.95;;;;;;;17.71;89.89;100291.34;1772345;80;25809;-77
2021/08/05 08:06:26;;;;;;;8.83;7.92;;;;;;;17.78;89.62;100294.73;1731126;81;27556;-77
2021/08/05 08:08:53;;;;;;;7.90;7.15;;;;;;;17.85;89.40;100287.30;1662988;82;25863;-77
2021/08/05 08:11:23;;;;;;;10.95;7.50;;;;;;;17.94;88.62;100293.16;1713437;80;26587;-77
2021/08/05 08:13:51;;;;;;;8.38;6.65;;;;;;;17.97;88.15;100288.06;1757958;80;25827;-77
2021/08/05 08:16:21;;;;;;;7.08;6.20;;;;;;;18.05;87.76;100293.09;1691396;81;25857;-77
2021/08/05 08:18:49;;;;;;;9.98;5.95;;;;;;;18.15;88.12;100289.23;1720204;81;28526;-77
2021/08/05 08:21:18;;;;;;;6.65;5.92;;;;;;;18.22;87.09;100280.95;1694117;81;26332;-77
2021/08/05 08:23:46;;;;;;;8.08;5.37;;;;;;;18.31;86.18;100285.71;1738551;81;25309;-78
2021/08/05 08:26:14;;;;;;;6.42;5.53;;;;;;;18.37;86.49;100279.83;1656773;82;25822;-77
2021/08/05 08:28:41;;;;;;;8.08;5.15;;;;;;;18.47;86.16;100277.34;1692810;81;25882;-78
2021/08/05 08:31:08;;;;;;;6.45;5.47;;;;;;;18.55;85.34;100277.45;1696042;81;27601;-78
2021/08/05 08:33:35;;;;;;;5.47;4.78;;;;;;;18.60;84.39;100284.33;1717304;81;25755;-78
2021/08/05 08:36:03;;;;;;;6.87;4.87;;;;;;;18.63;84.36;100278.39;1755468;81;25816;-78
2021/08/05 08:38:30;;;;;;;5.55;4.80;;;;;;;18.68;84.11;100273.06;1677576;81;26596;-77
2021/08/05 08:40:59;;;;;;;5.35;4.85;;;;;;;18.74;83.21;100273.42;1719598;81;25820;-78
2021/08/05 08:43:28;;;;;;;6.45;4.40;;;;;;;18.77;82.97;100271.59;1751960;81;27559;-78
2021/08/05 08:45:56;;;;;;;9.25;4.40;;;;;;;18.80;82.58;100273.25;1756293;81;25881;-78
2021/08/05 08:48:29;;;;;;;4.05;3.65;;;;;;;18.84;81.81;100271.69;1703732;81;25849;-77
2021/08/05 08:51:02;;;;;;;4.80;4.37;;;;;;;18.87;81.72;100258.16;1740194;81;25779;-77
2021/08/05 08:53:36;;;;;;;4.58;4.10;;;;;;;18.92;82.20;100263.67;1726136;81;25756;-77
2021/08/05 08:56:08;;;;;;;4.17;3.55;;;;;;;19.00;82.67;100264.59;1738206;82;27586;-78
2021/08/05 08:58:35;;;;;;;4.03;3.60;;;;;;;19.04;81.12;100258.95;1673455;81;26126;-78
2021/08/05 09:01:03;;;;;;;4.85;3.35;;;;;;;19.02;81.00;100255.14;1723689;81;25898;-77
2021/08/05 09:03:31;;;;;;;4.03;3.47;;;;;;;19.05;80.81;100257.34;1720891;81;26447;-77
2021/08/05 09:05:58;;;;;;;4.03;3.58;;;;;;;19.08;80.51;100252.78;1708810;81;25773;-77
2021/08/05 09:08:25;;;;;;;5.40;3.75;;;;;;;19.09;80.31;100255.79;1678741;81;27037;-77
2021/08/05 09:10:58;;;;;;;5.28;3.62;;;;;;;19.14;80.64;100256.38;1705778;81;25852;-78
2021/08/05 09:13:25;;;;;;;3.20;2.90;;;;;;;19.18;80.08;100260.25;1714222;82;25740;-78
2021/08/05 09:15:52;;;;;;;6.87;3.45;;;;;;;19.15;79.71;100253.42;1753920;80;26195;-77
2021/08/05 09:18:36;;;;;;;3.65;2.75;;;;;;;19.15;78.89;100254.78;1671347;81;26315;-77
2021/08/05 09:21:23;;;;;;;4.33;3.27;;;;;;;19.13;79.13;100246.07;1719297;81;27650;-78
2021/08/05 09:24:01;;;;;;;3.65;2.90;;;;;;;19.17;79.54;100247.20;1709174;82;25869;-78
2021/08/05 09:26:37;;;;;;;5.75;2.80;;;;;;;19.22;79.36;100245.89;1718775;81;25814;-77
2021/08/05 09:29:19;;;;;;;4.60;2.83;;;;;;;19.25;78.42;100244.58;1681409;81;26493;-78
2021/08/05 09:31:54;;;;;;;3.58;3.02;;;;;;;19.24;78.64;100247.02;1728330;82;25677;-78
2021/08/05 09:34:36;;;;;;;4.12;2.40;;;;;;;19.26;78.40;100248.95;1731699;82;27642;-77
2021/08/05 09:37:08;;;;;;;4.45;2.92;;;;;;;19.31;78.20;100242.77;1741275;81;25903;-78
2021/08/05 09:39:39;;;;;;;6.25;3.10;;;;;;;19.37;78.63;100240.42;1692945;81;25816;-77
2021/08/05 09:42:12;;;;;;;3.42;3.02;;;;;;;19.42;78.27;100234.51;1717620;81;26487;-78
2021/08/05 09:44:44;;;;;;;8.83;2.70;;;;;;;19.47;77.76;100238.66;1685839;82;25830;-78
2021/08/05 09:47:18;;;;;;;3.40;2.62;;;;;;;19.50;76.91;100236.80;1755980;80;27633;-77
2021/08/05 09:49:53;;;;;;;3.37;2.65;;;;;;;19.52;76.49;100240.08;1719295;81;26463;-77
2021/08/05 09:52:31;;;;;;;4.22;2.65;;;;;;;19.58;77.04;100236.87;1725890;80;25903;-78
2021/08/05 09:55:01;;;;;;;4.08;3.02;;;;;;;19.62;76.47;100239.36;1697099;82;25791;-78
2021/08/05 09:57:34;;;;;;;5.25;2.60;;;;;;;19.68;76.23;100230.19;1751384;81;25800;-78
2021/08/05 10:00:17;;;;;;;3.27;2.62;;;;;;;19.70;74.69;100231.58;1677565;81;27407;-78
2021/08/05 10:02:49;;;;;;;4.17;2.65;;;;;;;19.73;75.83;100225.65;1696686;81;26631;-77
2021/08/05 10:05:25;;;;;;;2.67;2.37;;;;;;;19.85;75.96;100223.59;1721406;81;26283;-77
2021/08/05 10:07:59;;;;;;;6.12;2.87;;;;;;;19.97;75.87;100223.45;1774315;80;26559;-77
2021/08/05 10:10:30;;;;;;;3.30;2.30;;;;;;;20.05;75.52;100219.44;1683196;82;25889;-77
2021/08/05 10:13:00;;;;;;;3.20;2.47;;;;;;;20.04;74.55;100218.60;1762180;80;27470;-78
2021/08/05 10:15:30;;;;;;;4.22;2.67;;;;;;;20.07;75.23;100210.47;1683298;82;25716;-77
2021/08/05 10:18:01;;;;;;;4.83;2.70;;;;;;;20.17;74.95;100208.66;1714680;81;26179;-77
2021/08/05 10:20:30;;;;;;;5.15;2.45;;;;;;;20.26;74.68;100214.48;1720424;81;27113;-78
2021/08/05 10:22:58;;;;;;;2.85;2.50;;;;;;;20.27;72.56;100206.09;1703920;81;25786;-77
2021/08/05 10:25:27;;;;;;;4.90;2.47;;;;;;;20.29;73.76;100199.84;1709361;81;28147;-78
2021/08/05 10:27:58;;;;;;;3.20;2.10;;;;;;;20.34;72.90;100199.03;1714200;82;25857;-78
2021/08/05 10:30:26;;;;;;;3.72;2.35;;;;;;;20.35;72.97;100193.36;1695661;81;25825;-78
2021/08/05 10:32:54;;;;;;;5.92;2.35;;;;;;;20.38;72.21;100194.18;1703871;81;26550;-77
2021/08/05 10:35:23;;;;;;;4.45;2.42;;;;;;;20.43;72.40;100192.05;1713779;82;25993;-77
2021/08/05 10:37:52;;;;;;;2.33;2.12;;;;;;;20.46;72.90;100190.17;1760228;81;28145;-77
2021/08/05 10:40:19;;;;;;;3.10;2.05;;;;;;;20.55;73.04;100190.77;1707755;82;26272;-78
2021/08/05 10:42:49;;;;;;;2.72;2.30;;;;;;;20.60;71.58;100185.91;1702269;81;25805;-77
2021/08/05 10:45:18;;;;;;;3.20;2.50;;;;;;;20.58;71.50;100182.63;1714083;82;25875;-78
2021/08/05 10:47:50;;;;;;;2.95;2.55;;;;;;;20.55;72.03;100181.25;1753455;80;25909;-78
2021/08/05 10:50:21;;;;;;;4.05;2.55;;;;;;;20.53;71.67;100180.69;1696592;81;27194;-78
2021/08/05 10:52:55;;;;;;;;;;;;;;;20.53;72.31;100179.33;1724322;81;25817;-78
2021/08/05 10:55:32;;;;;;;2.95;2.15;;;;;;;20.54;71.29;100179.63;1753327;81;25816;-77
2021/08/05 10:58:16;;;;;;;3.42;2.10;;;;;;;20.44;71.78;100182.81;1712165;82;25877;-77
2021/08/05 11:00:54;;;;;;;4.12;2.00;;;;;;;20.38;70.10;100190.09;1718310;81;25738;-78
2021/08/05 11:03:39;;;;;;;3.33;1.82;;;;;;;20.31;70.92;100187.34;1722860;81;28118;-77
2021/08/05 11:06:09;;;;;;;3.98;2.22;;;;;;;20.28;71.65;100183.77;1777995;80;25788;-77
2021/08/05 11:08:36;;;;;;;;;;;;;;;20.25;71.48;100176.14;1729009;81;25826;-77
2021/08/05 11:11:27;;;;;;;4.00;2.08;;;;;;;20.22;71.61;100178.01;1766237;79;25918;-76
2021/08/05 11:14:02;;;;;;;2.72;2.00;;;;;;;20.22;71.94;100187.53;1712074;82;25848;-77
2021/08/05 11:16:55;;;;;;;3.17;2.08;;;;;;;20.18;72.32;100178.22;1748992;80;28247;-78
2021/08/05 11:19:26;;;;;;;2.12;1.90;;;;;;;20.24;71.76;100183.48;1688231;82;26149;-78
2021/08/05 11:21:55;;;;;;;3.08;1.82;;;;;;;20.22;71.50;100180.20;1717099;80;25828;-77
2021/08/05 11:24:48;;;;;;;3.17;2.00;;;;;;;20.23;72.09;100176.95;1727512;81;25924;-77
2021/08/05 11:27:18;;;;;;;2.60;2.25;;;;;;;20.24;71.85;100171.77;1751965;81;26653;-77
2021/08/05 11:29:45;;;;;;;4.20;2.10;;;;;;;20.15;71.31;100156.97;1695728;81;28123;-77
2021/08/05 11:32:27;;;;;;;3.90;2.00;;;;;;;20.12;71.56;100165.13;1695990;81;25812;-77